createdAt,value
2023-04-25T00:00:53.604Z,74.31
2023-04-25T00:03:37.460Z,74.65
2023-04-25T00:06:21.102Z,74.13
2023-04-25T00:09:12.168Z,73.85
2023-04-25T00:11:55.812Z,73.59
2023-04-25T00:14:39.386Z,73.06
2023-04-25T00:17:23.032Z,73.30
2023-04-25T00:20:09.976Z,73.66
2023-04-25T00:22:56.165Z,72.85
2023-04-25T00:25:39.691Z,72.43
2023-04-25T00:28:23.235Z,72.12
2023-04-25T00:31:06.798Z,71.51
2023-04-25T00:33:50.846Z,71.23
2023-04-25T00:36:34.748Z,70.99
2023-04-25T00:39:18.856Z,71.35
2023-04-25T00:42:03.537Z,71.97
2023-04-25T00:44:48.694Z,71.78
2023-04-25T00:47:34.373Z,71.59
2023-04-25T00:50:18.102Z,71.97
2023-04-25T00:53:02.493Z,72.01
2023-04-25T00:55:46.349Z,71.91
2023-04-25T00:58:30.455Z,71.82
2023-04-25T01:01:14.397Z,72.24
2023-04-25T01:04:01.145Z,71.93
2023-04-25T01:06:45.013Z,72.10
2023-04-25T01:09:29.190Z,72.20
2023-04-25T01:12:14.083Z,72.53
2023-04-25T01:14:58.325Z,71.67
2023-04-25T01:17:42.590Z,71.95
2023-04-25T01:20:27.485Z,72.84
2023-04-25T01:23:11.831Z,71.91
2023-04-25T01:25:56.473Z,72.50
2023-04-25T01:28:44.397Z,72.06
2023-04-25T01:31:30.158Z,72.11
2023-04-25T01:34:14.810Z,71.76
2023-04-25T01:37:02.547Z,71.69
2023-04-25T01:39:46.584Z,72.21
2023-04-25T01:42:30.115Z,71.75
2023-04-25T01:45:13.958Z,71.58
2023-04-25T01:48:00.552Z,71.77
2023-04-25T01:50:47.253Z,72.32
2023-04-25T01:53:31.360Z,70.65
2023-04-25T01:56:15.179Z,71.89
2023-04-25T01:59:00.145Z,72.45
2023-04-25T02:02:06.887Z,71.68
2023-04-25T02:04:52.429Z,73.62
2023-04-25T02:07:36.331Z,72.03
2023-04-25T02:10:19.858Z,71.16
2023-04-25T02:13:12.420Z,71.05
2023-04-25T02:16:07.283Z,71.31
2023-04-25T02:18:53.868Z,71.29
2023-04-25T02:21:37.816Z,71.03
2023-04-25T02:24:21.565Z,71.20
2023-04-25T02:27:05.836Z,70.40
2023-04-25T02:29:49.349Z,70.95
2023-04-25T02:32:32.982Z,71.30
2023-04-25T02:35:16.829Z,72.31
2023-04-25T02:38:00.358Z,72.17
2023-04-25T02:40:44.134Z,71.61
2023-04-25T02:43:27.755Z,70.31
2023-04-25T02:46:11.430Z,70.06
2023-04-25T02:48:56.801Z,71.64
2023-04-25T02:51:40.446Z,71.68
2023-04-25T02:54:24.339Z,70.66
2023-04-25T02:57:09.284Z,70.86
2023-04-25T02:59:54.598Z,70.79
2023-04-25T03:02:38.263Z,70.83
2023-04-25T03:05:21.949Z,70.81
2023-04-25T03:08:05.649Z,70.44
2023-04-25T03:10:52.517Z,70.28
2023-04-25T03:13:36.471Z,70.29
2023-04-25T03:16:20.931Z,69.53
2023-04-25T03:19:05.348Z,70.98
2023-04-25T03:21:49.868Z,71.02
2023-04-25T03:24:33.422Z,70.69
2023-04-25T03:27:17.371Z,71.14
2023-04-25T03:30:00.949Z,70.73
2023-04-25T03:32:44.610Z,71.33
2023-04-25T03:35:31.674Z,71.54
2023-04-25T03:38:15.522Z,71.71
2023-04-25T03:40:59.098Z,71.39
2023-04-25T03:44:01.401Z,69.69
2023-04-25T03:46:44.960Z,70.34
2023-04-25T03:49:28.636Z,71.25
2023-04-25T03:52:20.079Z,71.16
2023-04-25T03:55:05.962Z,71.80
2023-04-25T03:57:49.576Z,70.73
2023-04-25T04:00:33.938Z,71.36
2023-04-25T04:03:17.903Z,71.80
2023-04-25T04:06:02.532Z,71.50
2023-04-25T04:08:46.647Z,71.47
2023-04-25T04:11:30.526Z,71.01
2023-04-25T04:14:14.238Z,71.69
2023-04-25T04:17:01.770Z,71.01
2023-04-25T04:19:46.162Z,71.25
2023-04-25T04:22:33.700Z,72.11
2023-04-25T04:25:22.403Z,71.56
2023-04-25T04:28:24.620Z,71.80
2023-04-25T04:31:13.941Z,72.11
2023-04-25T04:33:57.543Z,70.94
2023-04-25T04:36:41.218Z,71.45
2023-04-25T04:39:25.123Z,70.73
2023-04-25T04:42:31.736Z,72.40
2023-04-25T04:45:21.722Z,72.58
2023-04-25T04:48:23.651Z,71.87
2023-04-25T04:51:22.022Z,73.38
2023-04-25T04:54:28.254Z,73.69
2023-04-25T04:57:34.188Z,71.59
2023-04-25T05:00:38.621Z,72.13
2023-04-25T05:03:22.328Z,70.95
2023-04-25T05:06:14.840Z,71.72
2023-04-25T05:09:16.180Z,72.17
2023-04-25T05:12:18.212Z,70.96
2023-04-25T05:15:04.988Z,71.74
2023-04-25T05:17:48.715Z,72.12
2023-04-25T05:20:48.571Z,72.81
2023-04-25T05:24:01.378Z,72.90
2023-04-25T05:27:03.545Z,73.28
2023-04-25T05:30:22.307Z,72.75
2023-04-25T05:33:21.829Z,71.92
2023-04-25T05:36:06.287Z,71.86
2023-04-25T05:38:49.946Z,72.79
2023-04-25T05:41:39.303Z,71.23
2023-04-25T05:44:46.368Z,72.76
2023-04-25T05:47:40.632Z,71.39
2023-04-25T05:50:29.640Z,73.49
2023-04-25T05:53:33.132Z,72.74
2023-04-25T05:56:18.455Z,72.09
2023-04-25T05:59:07.285Z,73.57
2023-04-25T06:01:50.781Z,73.52
2023-04-25T06:04:34.615Z,73.15
2023-04-25T06:07:19.766Z,72.46
2023-04-25T06:10:04.926Z,73.98
2023-04-25T06:12:48.567Z,75.28
2023-04-25T06:15:33.818Z,75.13
2023-04-25T06:18:18.291Z,74.77
2023-04-25T06:21:01.893Z,76.27
2023-04-25T06:23:45.514Z,75.56
2023-04-25T06:26:35.730Z,74.77
2023-04-25T06:29:20.804Z,75.59
2023-04-25T06:32:07.006Z,76.26
2023-04-25T06:34:51.732Z,75.90
2023-04-25T06:37:35.435Z,73.11
2023-04-25T06:40:19.256Z,74.78
2023-04-25T06:43:02.847Z,73.60
2023-04-25T06:46:05.729Z,74.96
2023-04-25T06:48:53.348Z,75.24
2023-04-25T06:51:37.393Z,76.49
2023-04-25T06:54:21.745Z,74.80
2023-04-25T06:57:16.983Z,75.65
2023-04-25T07:00:02.246Z,74.19
2023-04-25T07:02:47.754Z,73.52
2023-04-25T07:05:31.499Z,75.88
2023-04-25T07:08:15.811Z,76.40
2023-04-25T07:10:59.472Z,77.08
2023-04-25T07:13:43.144Z,76.25
2023-04-25T07:16:26.973Z,75.83
2023-04-25T07:19:10.829Z,75.77
2023-04-25T07:21:54.863Z,76.55
2023-04-25T07:24:39.392Z,75.43
2023-04-25T07:27:23.764Z,76.48
2023-04-25T07:30:13.415Z,79.74
2023-04-25T07:32:57.008Z,80.32
2023-04-25T07:35:41.028Z,82.71
2023-04-25T07:38:24.673Z,82.49
2023-04-25T07:41:08.391Z,81.21
2023-04-25T07:43:52.801Z,83.35
2023-04-25T07:46:37.614Z,86.20
2023-04-25T07:49:22.752Z,84.43
2023-04-25T07:52:07.285Z,83.31
2023-04-25T07:54:52.357Z,83.88
2023-04-25T07:57:44.441Z,84.46
2023-04-25T08:00:29.523Z,84.86
2023-04-25T08:03:32.512Z,83.08
2023-04-25T08:06:17.376Z,80.75
2023-04-25T08:09:13.751Z,80.97
2023-04-25T08:11:59.513Z,80.55
2023-04-25T08:14:47.846Z,80.82
2023-04-25T08:17:32.106Z,80.20
2023-04-25T08:20:16.391Z,80.19
2023-04-25T08:23:00.683Z,79.91
2023-04-25T08:25:55.065Z,79.66
2023-04-25T08:28:43.239Z,80.10
2023-04-25T08:31:27.047Z,80.72
2023-04-25T08:34:17.128Z,78.25
2023-04-25T08:37:05.555Z,78.12
2023-04-25T08:40:10.814Z,75.84
2023-04-25T08:43:20.684Z,75.28
2023-04-25T08:46:04.760Z,74.82
2023-04-25T08:49:03.416Z,73.61
2023-04-25T08:51:48.598Z,73.64
2023-04-25T08:54:37.267Z,72.72
2023-04-25T08:57:24.602Z,71.66
2023-04-25T09:00:09.345Z,69.04
2023-04-25T09:02:57.923Z,65.53
2023-04-25T09:09:12.056Z,61.50
2023-04-25T09:11:56.658Z,59.81
2023-04-25T09:14:43.874Z,59.12
2023-04-25T09:17:45.603Z,58.15
2023-04-25T09:20:31.653Z,57.26
2023-04-25T09:23:16.511Z,55.14
2023-04-25T09:26:00.538Z,55.66
2023-04-25T09:28:44.498Z,54.78
2023-04-25T09:31:28.374Z,54.27
2023-04-25T09:34:18.184Z,52.39
2023-04-25T09:37:13.225Z,52.72
2023-04-25T09:40:15.539Z,51.84
2023-04-25T09:43:21.923Z,51.77
2023-04-25T09:46:12.490Z,51.28
2023-04-25T09:49:09.370Z,50.66
2023-04-25T09:52:26.573Z,51.40
2023-04-25T09:55:21.470Z,51.23
2023-04-25T09:58:12.435Z,51.24
2023-04-25T10:01:03.510Z,52.57
2023-04-25T10:03:59.670Z,52.55
2023-04-25T10:07:00.195Z,52.80
2023-04-25T10:09:46.819Z,53.93
2023-04-25T10:12:35.024Z,53.08
2023-04-25T10:15:19.860Z,53.13
2023-04-25T10:18:04.129Z,53.21
2023-04-25T10:20:47.685Z,51.86
2023-04-25T10:23:32.941Z,50.65
2023-04-25T10:26:17.922Z,51.20
2023-04-25T10:29:05.592Z,49.96
2023-04-25T10:31:49.267Z,49.46
2023-04-25T10:34:48.361Z,48.68
2023-04-25T10:37:32.118Z,50.18
2023-04-25T10:40:24.156Z,48.52
2023-04-25T10:43:32.526Z,49.43
2023-04-25T10:46:35.181Z,48.76
2023-04-25T10:49:42.179Z,48.12
2023-04-25T10:52:29.403Z,48.11
2023-04-25T10:55:14.182Z,48.10
2023-04-25T11:00:56.746Z,47.64
2023-04-25T11:03:45.293Z,47.11
2023-04-25T11:06:53.824Z,47.83
2023-04-25T11:09:42.697Z,48.73
2023-04-25T11:12:26.485Z,47.87
2023-04-25T11:15:10.226Z,48.51
2023-04-25T11:17:55.190Z,48.53
2023-04-25T11:20:38.733Z,47.88
2023-04-25T11:23:22.280Z,47.82
2023-04-25T11:26:05.904Z,47.50
2023-04-25T11:28:50.778Z,46.36
2023-04-25T11:31:34.342Z,46.74
2023-04-25T11:34:20.953Z,46.50
2023-04-25T11:37:05.546Z,47.04
2023-04-25T11:39:49.111Z,46.58
2023-04-25T11:42:32.806Z,46.70
2023-04-25T11:45:16.715Z,47.31
2023-04-25T11:48:00.402Z,48.03
2023-04-25T11:50:44.030Z,47.80
2023-04-25T11:53:29.480Z,48.01
2023-04-25T11:56:13.565Z,46.32
2023-04-25T11:58:57.695Z,46.26
2023-04-25T12:01:50.509Z,45.20
2023-04-25T12:04:34.269Z,44.63
2023-04-25T12:07:19.930Z,43.95
2023-04-25T12:10:13.273Z,44.21
2023-04-25T12:12:57.261Z,44.59
2023-04-25T12:15:42.652Z,44.68
2023-04-25T12:18:29.838Z,44.10
2023-04-25T12:21:13.689Z,44.24
2023-04-25T12:23:59.251Z,44.31
2023-04-25T12:27:06.105Z,45.01
2023-04-25T12:29:57.925Z,45.87
2023-04-25T12:32:42.665Z,45.76
2023-04-25T12:35:27.234Z,45.90
2023-04-25T12:38:11.847Z,45.53
2023-04-25T12:40:55.722Z,45.46
2023-04-25T12:43:39.393Z,43.98
2023-04-25T12:46:24.435Z,44.19
2023-04-25T12:49:18.690Z,44.35
2023-04-25T12:52:03.071Z,43.58
2023-04-25T12:54:46.882Z,42.54
2023-04-25T12:57:30.579Z,42.29
2023-04-25T13:00:16.152Z,42.85
2023-04-25T13:03:07.085Z,43.32
2023-04-25T13:05:53.631Z,43.21
2023-04-25T13:08:39.312Z,44.13
2023-04-25T13:11:23.046Z,44.77
2023-04-25T13:14:10.964Z,44.90
2023-04-25T13:16:55.673Z,45.01
2023-04-25T13:19:42.658Z,44.84
2023-04-25T13:22:26.336Z,44.91
2023-04-25T13:25:10.483Z,43.57
2023-04-25T13:27:54.218Z,43.39
2023-04-25T13:30:38.160Z,43.61
2023-04-25T13:33:22.724Z,43.11
2023-04-25T13:36:07.139Z,41.10
2023-04-25T13:38:50.968Z,41.99
2023-04-25T13:41:34.642Z,41.69
2023-04-25T13:44:18.458Z,42.21
2023-04-25T13:47:02.363Z,42.92
2023-04-25T13:49:46.297Z,43.96
2023-04-25T13:52:30.841Z,43.94
2023-04-25T13:55:14.459Z,43.53
2023-04-25T13:57:58.878Z,43.78
2023-04-25T14:00:47.194Z,44.21
2023-04-25T14:03:32.600Z,44.02
2023-04-25T14:06:22.391Z,44.37
2023-04-25T14:09:07.821Z,42.84
2023-04-25T14:11:51.583Z,43.70
2023-04-25T14:14:35.628Z,43.49
2023-04-25T14:17:21.677Z,44.99
2023-04-25T14:20:07.121Z,46.14
2023-04-25T14:22:51.352Z,45.84
2023-04-25T14:25:45.531Z,46.67
2023-04-25T14:28:29.315Z,46.15
2023-04-25T14:31:12.960Z,46.34
2023-04-25T14:34:00.089Z,46.82
2023-04-25T14:36:44.333Z,46.04
2023-04-25T14:39:27.953Z,46.70
2023-04-25T14:42:12.337Z,45.37
2023-04-25T14:44:56.007Z,46.42
2023-04-25T14:47:40.072Z,46.87
2023-04-25T14:50:24.074Z,45.94
2023-04-25T14:53:08.038Z,45.20
2023-04-25T14:55:54.950Z,45.59
2023-04-25T14:58:40.133Z,44.96
2023-04-25T15:01:24.246Z,44.69
2023-04-25T15:04:08.168Z,44.97
2023-04-25T15:06:52.285Z,44.75
2023-04-25T15:09:36.032Z,45.39
2023-04-25T15:12:21.591Z,45.71
2023-04-25T15:15:06.915Z,45.48
2023-04-25T15:17:51.628Z,46.16
2023-04-25T15:20:36.171Z,47.19
2023-04-25T15:23:22.576Z,46.68
2023-04-25T15:26:09.530Z,46.99
2023-04-25T15:28:53.671Z,47.21
2023-04-25T15:31:40.505Z,47.90
2023-04-25T15:34:24.618Z,47.73
2023-04-25T15:37:08.630Z,46.83
2023-04-25T15:40:10.067Z,47.85
2023-04-25T15:42:54.144Z,47.46
2023-04-25T15:45:38.125Z,46.97
2023-04-25T15:48:23.766Z,44.77
2023-04-25T15:51:07.546Z,45.77
2023-04-25T15:53:54.513Z,45.70
2023-04-25T15:56:38.484Z,46.27
2023-04-25T15:59:22.171Z,46.74
2023-04-25T16:02:08.813Z,46.93
2023-04-25T16:04:52.773Z,46.83
2023-04-25T16:07:37.023Z,47.17
2023-04-25T16:10:22.002Z,47.58
2023-04-25T16:13:05.685Z,48.71
2023-04-25T16:15:49.947Z,48.61
2023-04-25T16:18:34.136Z,49.32
2023-04-25T16:21:21.434Z,48.88
2023-04-25T16:24:05.360Z,48.86
2023-04-25T16:26:49.124Z,48.89
2023-04-25T16:29:33.077Z,49.09
2023-04-25T16:32:19.379Z,48.71
2023-04-25T16:35:03.089Z,47.63
2023-04-25T16:37:47.397Z,47.01
2023-04-25T16:40:31.409Z,47.26
2023-04-25T16:43:15.362Z,47.53
2023-04-25T16:46:00.735Z,47.54
2023-04-25T16:48:49.350Z,48.02
2023-04-25T16:51:43.772Z,48.45
2023-04-25T16:54:31.356Z,48.87
2023-04-25T16:57:15.191Z,49.51
2023-04-25T16:59:59.210Z,49.62
2023-04-25T17:02:47.374Z,50.49
2023-04-25T17:05:31.474Z,49.80
2023-04-25T17:08:18.334Z,49.92
2023-04-25T17:11:03.780Z,50.67
2023-04-25T17:13:48.061Z,49.41
2023-04-25T17:16:38.003Z,49.10
2023-04-25T17:19:23.971Z,48.73
2023-04-25T17:22:07.951Z,48.23
2023-04-25T17:24:52.317Z,47.88
2023-04-25T17:27:39.615Z,48.93
2023-04-25T17:30:23.921Z,48.80
2023-04-25T17:33:07.945Z,48.41
2023-04-25T17:35:51.904Z,48.76
2023-04-25T17:38:39.335Z,48.75
2023-04-25T17:41:23.131Z,49.01
2023-04-25T17:44:07.174Z,48.79
2023-04-25T17:46:51.393Z,48.47
2023-04-25T17:49:35.041Z,48.86
2023-04-25T17:52:18.815Z,48.81
2023-04-25T17:55:02.850Z,48.84
2023-04-25T17:57:49.855Z,48.97
2023-04-25T18:00:34.616Z,49.56
2023-04-25T18:03:18.371Z,50.02
2023-04-25T18:06:02.189Z,50.98
2023-04-25T18:08:46.918Z,50.20
2023-04-25T18:11:33.063Z,50.46
2023-04-25T18:14:17.214Z,50.75
2023-04-25T18:17:01.004Z,50.90
2023-04-25T18:19:48.982Z,51.31
2023-04-25T18:22:33.309Z,50.32
2023-04-25T18:25:17.208Z,50.43
2023-04-25T18:28:01.056Z,50.71
2023-04-25T18:30:44.841Z,51.04
2023-04-25T18:33:28.428Z,51.59
2023-04-25T18:36:11.971Z,52.50
2023-04-25T18:39:03.353Z,56.77
2023-04-25T18:42:03.286Z,59.65
2023-04-25T18:44:51.255Z,60.88
2023-04-25T18:47:34.855Z,60.65
2023-04-25T18:50:20.864Z,60.29
2023-04-25T18:53:04.382Z,59.88
2023-04-25T18:55:48.080Z,61.20
2023-04-25T18:58:32.616Z,60.38
2023-04-25T19:01:16.483Z,60.90
2023-04-25T19:04:02.268Z,60.83
2023-04-25T19:06:50.155Z,60.03
2023-04-25T19:09:33.762Z,59.69
2023-04-25T19:12:17.347Z,59.19
2023-04-25T19:15:01.952Z,59.76
2023-04-25T19:17:45.660Z,63.86
2023-04-25T19:20:29.336Z,65.61
2023-04-25T19:26:25.493Z,67.25
2023-04-25T19:29:13.478Z,66.48
2023-04-25T19:31:59.663Z,66.55
2023-04-25T19:34:43.198Z,67.22
2023-04-25T19:37:26.873Z,65.57
2023-04-25T19:40:11.591Z,67.73
2023-04-25T19:42:55.778Z,65.34
2023-04-25T19:45:39.632Z,64.99
2023-04-25T19:48:23.782Z,64.55
2023-04-25T19:51:07.882Z,63.96
2023-04-25T19:53:54.967Z,63.35
2023-04-25T19:56:38.618Z,63.54
2023-04-25T19:59:22.329Z,63.35
2023-04-25T20:02:10.893Z,62.89
2023-04-25T20:04:54.906Z,63.33
2023-04-25T20:07:38.721Z,63.81
2023-04-25T20:10:22.463Z,61.85
2023-04-25T20:13:06.044Z,62.03
2023-04-25T20:15:49.675Z,62.57
2023-04-25T20:18:33.369Z,61.67
2023-04-25T20:21:17.576Z,63.16
2023-04-25T20:24:01.943Z,61.79
2023-04-25T20:26:45.492Z,60.84
2023-04-25T20:29:29.259Z,61.13
2023-04-25T20:32:13.302Z,61.85
2023-04-25T20:34:57.383Z,61.08
2023-04-25T20:37:41.056Z,61.75
2023-04-25T20:40:24.654Z,62.09
2023-04-25T20:43:11.283Z,61.27
2023-04-25T20:45:55.186Z,60.94
2023-04-25T20:48:38.718Z,61.72
2023-04-25T20:51:23.120Z,60.30
2023-04-25T20:54:09.653Z,60.15
2023-04-25T20:56:54.000Z,60.91
2023-04-25T20:59:37.775Z,60.20
2023-04-25T21:02:21.545Z,61.42
2023-04-25T21:05:05.887Z,62.19
2023-04-25T21:07:50.239Z,62.63
2023-04-25T21:10:34.992Z,62.65
2023-04-25T21:13:20.553Z,63.14
2023-04-25T21:16:04.356Z,61.94
2023-04-25T21:18:47.862Z,62.35
2023-04-25T21:21:32.376Z,62.26
2023-04-25T21:24:16.475Z,62.37
2023-04-25T21:27:00.148Z,62.33
2023-04-25T21:29:45.824Z,61.51
2023-04-25T21:32:29.391Z,61.86
2023-04-25T21:35:14.691Z,61.79
2023-04-25T21:37:58.546Z,61.86
2023-04-25T21:40:42.295Z,62.93
2023-04-25T21:43:25.930Z,61.98
2023-04-25T21:48:56.796Z,62.02
2023-04-25T21:51:40.365Z,61.86
2023-04-25T21:54:23.893Z,61.49
2023-04-25T21:57:07.439Z,62.36
2023-04-25T21:59:51.119Z,61.61
2023-04-25T22:02:36.855Z,61.03
2023-04-25T22:05:22.540Z,61.91
2023-04-25T22:08:06.247Z,62.47
2023-04-25T22:10:49.765Z,62.53
2023-04-25T22:13:33.880Z,63.32
2023-04-25T22:16:18.042Z,62.88
2023-04-25T22:19:01.628Z,62.73
2023-04-25T22:21:45.100Z,62.82
2023-04-25T22:24:30.046Z,63.29
2023-04-25T22:27:13.664Z,63.03
2023-04-25T22:29:57.168Z,63.81
2023-04-25T22:32:41.678Z,65.00
2023-04-25T22:35:25.267Z,64.33
2023-04-25T22:38:08.816Z,64.89
2023-04-25T22:40:52.402Z,64.70
2023-04-25T22:43:39.936Z,65.95
2023-04-25T22:46:23.926Z,64.96
2023-04-25T22:49:07.613Z,65.53
2023-04-25T22:51:55.597Z,65.68
2023-04-25T22:54:39.608Z,65.04
2023-04-25T22:57:23.108Z,65.76
2023-04-25T23:00:15.574Z,65.78
2023-04-25T23:02:59.437Z,65.82
2023-04-25T23:05:44.457Z,65.32
2023-04-25T23:08:28.037Z,66.33
2023-04-25T23:11:11.622Z,67.21
2023-04-25T23:13:55.317Z,66.89
2023-04-25T23:16:40.908Z,67.07
2023-04-25T23:19:24.533Z,67.42
2023-04-25T23:22:08.699Z,67.83
2023-04-25T23:24:52.337Z,67.94
2023-04-25T23:27:35.960Z,67.83
2023-04-25T23:30:20.423Z,67.77
2023-04-25T23:33:04.295Z,68.21
2023-04-25T23:35:47.876Z,68.77
2023-04-25T23:38:32.379Z,68.88
2023-04-25T23:41:16.180Z,68.89
2023-04-25T23:43:59.660Z,69.29
2023-04-25T23:46:43.352Z,69.37
2023-04-25T23:49:27.269Z,69.05
2023-04-25T23:52:10.937Z,69.84
2023-04-25T23:54:55.709Z,68.55
2023-04-25T23:57:39.354Z,69.25
